Aikoumaru No.8 — JD3288 — position and weather

sailwx.info

Track history (hours):
 
Tides and Currents Weather Stations Pressure Air Temp Water Temp Dewpoint Dewpoint Depression Visibility Wind Speed Wind Dir Waves Ship Positions

Aikoumaru No.8

Last reported at 2015-May-05 13:32 UTC. Time now 2015-May-06 17:30 UTC.
Position N 34°35' E 135°27'.

Length 74 m; draft 4.5 m.

Type: Cargo ship. MMSI: 431003153.

Date/timePositionNaut miles runAvg speedWind from/ knotsBaromVisibWave heightAir tempDewpointWater temp
2015-May-05 13:32N 34°35' E 135°27'0 0.0
2015-May-04 06:24N 34°35' E 135°27'7 8.2
2015-May-04 05:33N 34°33' E 135°19'1312.6
2015-May-04 04:33N 34°24' E 135°09'1211.5
2015-May-04 03:31N 34°14' E 135°03'213 9.9
2015-May-03 06:06N 34°57' E 139°16'712.4
2015-May-03 05:31N 34°60' E 139°24'1212.5
2015-May-03 04:33N 35°05' E 139°37'1212.1
2015-May-03 03:33N 35°15' E 139°46'1110.7
2015-May-03 02:33N 35°25' E 139°45'1313.0
2015-May-03 01:33N 35°35' E 139°56'6 5.3
2015-May-03 00:30N 35°40' E 139°57'0 0.0
2015-May-02 23:30N 35°40' E 139°57'0 0.1
2015-May-02 22:33N 35°40' E 139°57'3 2.7
2015-May-02 21:18N 35°37' E 139°58'0 0.1
2015-May-02 20:21N 35°37' E 139°58'0 0.0
2015-May-02 19:24N 35°37' E 139°58'0 0.0
2015-May-02 18:33N 35°37' E 139°58'0 0.0
2015-May-02 17:33N 35°37' E 139°58'0 0.0
2015-May-02 16:30N 35°37' E 139°58'0 0.0
2015-May-02 15:30N 35°37' E 139°58'910.1
2015-May-02 14:34N 35°29' E 139°52'1211.9
2015-May-02 13:33N 35°19' E 139°44'1110.7
2015-May-02 12:33N 35°08' E 139°45'  
2015-Apr-30 03:33N 34°06' E 135°03'1412.1
2015-Apr-30 02:24N 34°20' E 135°05'911.1
2015-Apr-30 01:33N 34°27' E 135°12'1311.5
2015-Apr-30 00:28N 34°36' E 135°23'4 4.6
2015-Apr-29 23:33N 34°34' E 135°27'0 0.0
2015-Apr-29 22:03N 34°34' E 135°27'0 0.1
2015-Apr-29 21:33N 34°34' E 135°27'0 0.0
2015-Apr-29 20:33N 34°34' E 135°27'0 0.1
2015-Apr-29 19:33N 34°34' E 135°27'0 0.1
2015-Apr-29 18:33N 34°34' E 135°27'0 0.0
2015-Apr-29 16:27N 34°34' E 135°27'0 0.1
2015-Apr-29 15:33N 34°34' E 135°27'0 0.1
2015-Apr-29 14:33N 34°34' E 135°27'0 0.1
2015-Apr-29 13:15N 34°34' E 135°27'0 0.1
2015-Apr-29 12:27N 34°34' E 135°27'0 0.1
2015-Apr-29 11:32N 34°34' E 135°27'0 0.0
2015-Apr-29 10:26N 34°34' E 135°27'0 0.0
2015-Apr-29 09:08N 34°34' E 135°27'0 0.1
2015-Apr-29 08:32N 34°34' E 135°27'0 0.1
2015-Apr-29 07:32N 34°34' E 135°27'0 0.1
2015-Apr-29 06:33N 34°34' E 135°27'2 1.2
2015-Apr-29 05:11N 34°35' E 135°28'0 0.0
2015-Apr-29 03:23N 34°35' E 135°28'0 0.0
2015-Apr-29 01:23N 34°35' E 135°28'0 0.0
2015-Apr-28 22:23N 34°35' E 135°28'3 0.1
2015-Apr-28 01:33N 34°36' E 135°25'1212.0
2015-Apr-28 00:33N 34°28' E 135°13'1711.6
2015-Apr-27 23:07N 34°14' E 135°03'712.8
2015-Apr-27 22:33N 34°07' E 135°03'  
Track history (hours):
 
Tides and Currents Weather Stations Pressure Air Temp Water Temp Dewpoint Dewpoint Depression Visibility Wind Speed Wind Dir Waves Ship Positions

Aikoumaru No.8

Last reported at 2015-May-05 13:32 UTC. Time now 2015-May-06 17:30 UTC.
Position N 34°35' E 135°27'.

Length 74 m; draft 4.5 m.

Type: Cargo ship. MMSI: 431003153.

Date/timePositionNaut miles runAvg speedWind from/ knotsBaromVisibWave heightAir tempDewpointWater temp
2015-May-05 13:32N 34°35' E 135°27'0 0.0
2015-May-04 06:24N 34°35' E 135°27'7 8.2
2015-May-04 05:33N 34°33' E 135°19'1312.6
2015-May-04 04:33N 34°24' E 135°09'1211.5
2015-May-04 03:31N 34°14' E 135°03'213 9.9
2015-May-03 06:06N 34°57' E 139°16'712.4
2015-May-03 05:31N 34°60' E 139°24'1212.5
2015-May-03 04:33N 35°05' E 139°37'1212.1
2015-May-03 03:33N 35°15' E 139°46'1110.7
2015-May-03 02:33N 35°25' E 139°45'1313.0
2015-May-03 01:33N 35°35' E 139°56'6 5.3
2015-May-03 00:30N 35°40' E 139°57'0 0.0
2015-May-02 23:30N 35°40' E 139°57'0 0.1
2015-May-02 22:33N 35°40' E 139°57'3 2.7
2015-May-02 21:18N 35°37' E 139°58'0 0.1
2015-May-02 20:21N 35°37' E 139°58'0 0.0
2015-May-02 19:24N 35°37' E 139°58'0 0.0
2015-May-02 18:33N 35°37' E 139°58'0 0.0
2015-May-02 17:33N 35°37' E 139°58'0 0.0
2015-May-02 16:30N 35°37' E 139°58'0 0.0
2015-May-02 15:30N 35°37' E 139°58'910.1
2015-May-02 14:34N 35°29' E 139°52'1211.9
2015-May-02 13:33N 35°19' E 139°44'1110.7
2015-May-02 12:33N 35°08' E 139°45'  
2015-Apr-30 03:33N 34°06' E 135°03'1412.1
2015-Apr-30 02:24N 34°20' E 135°05'911.1
2015-Apr-30 01:33N 34°27' E 135°12'1311.5
2015-Apr-30 00:28N 34°36' E 135°23'4 4.6
2015-Apr-29 23:33N 34°34' E 135°27'0 0.0
2015-Apr-29 22:03N 34°34' E 135°27'0 0.1
2015-Apr-29 21:33N 34°34' E 135°27'0 0.0
2015-Apr-29 20:33N 34°34' E 135°27'0 0.1
2015-Apr-29 19:33N 34°34' E 135°27'0 0.1
2015-Apr-29 18:33N 34°34' E 135°27'0 0.0
2015-Apr-29 16:27N 34°34' E 135°27'0 0.1
2015-Apr-29 15:33N 34°34' E 135°27'0 0.1
2015-Apr-29 14:33N 34°34' E 135°27'0 0.1
2015-Apr-29 13:15N 34°34' E 135°27'0 0.1
2015-Apr-29 12:27N 34°34' E 135°27'0 0.1
2015-Apr-29 11:32N 34°34' E 135°27'0 0.0
2015-Apr-29 10:26N 34°34' E 135°27'0 0.0
2015-Apr-29 09:08N 34°34' E 135°27'0 0.1
2015-Apr-29 08:32N 34°34' E 135°27'0 0.1
2015-Apr-29 07:32N 34°34' E 135°27'0 0.1
2015-Apr-29 06:33N 34°34' E 135°27'2 1.2
2015-Apr-29 05:11N 34°35' E 135°28'0 0.0
2015-Apr-29 03:23N 34°35' E 135°28'0 0.0
2015-Apr-29 01:23N 34°35' E 135°28'0 0.0
2015-Apr-28 22:23N 34°35' E 135°28'3 0.1
2015-Apr-28 01:33N 34°36' E 135°25'1212.0
2015-Apr-28 00:33N 34°28' E 135°13'1711.6
2015-Apr-27 23:07N 34°14' E 135°03'712.8
2015-Apr-27 22:33N 34°07' E 135°03'  

Dump ship's entire track history